createdAt,value
2023-04-18T00:02:38.790Z,72.04
2023-04-18T00:05:43.909Z,72.10
2023-04-18T00:08:46.594Z,72.14
2023-04-18T00:11:49.184Z,72.32
2023-04-18T00:14:52.203Z,72.39
2023-04-18T00:17:57.067Z,72.61
2023-04-18T00:20:59.409Z,72.99
2023-04-18T00:24:02.372Z,73.05
2023-04-18T00:27:04.686Z,73.21
2023-04-18T00:30:09.061Z,73.20
2023-04-18T00:33:12.873Z,73.24
2023-04-18T00:36:15.519Z,73.54
2023-04-18T00:39:17.836Z,73.53
2023-04-18T00:42:21.952Z,73.66
2023-04-18T00:45:24.357Z,73.73
2023-04-18T00:48:27.394Z,73.80
2023-04-18T00:51:29.870Z,73.68
2023-04-18T00:54:32.861Z,73.67
2023-04-18T00:57:36.089Z,73.69
2023-04-18T01:00:38.748Z,73.62
2023-04-18T01:03:41.284Z,73.60
2023-04-18T01:06:45.602Z,73.42
2023-04-18T01:10:06.597Z,73.61
2023-04-18T01:13:20.410Z,73.62
2023-04-18T01:16:23.923Z,73.61
2023-04-18T01:19:26.928Z,73.47
2023-04-18T01:22:31.978Z,73.60
2023-04-18T01:25:34.966Z,73.32
2023-04-18T01:28:37.524Z,73.35
2023-04-18T01:31:41.336Z,73.33
2023-04-18T01:34:43.810Z,73.09
2023-04-18T01:37:46.706Z,73.14
2023-04-18T01:40:49.532Z,73.14
2023-04-18T01:43:52.130Z,73.13
2023-04-18T01:46:55.104Z,73.21
2023-04-18T01:49:57.724Z,72.99
2023-04-18T01:53:00.120Z,72.89
2023-04-18T01:56:02.724Z,72.82
2023-04-18T01:59:05.065Z,72.85
2023-04-18T02:02:08.150Z,72.78
2023-04-18T02:05:11.076Z,72.58
2023-04-18T02:08:14.861Z,72.53
2023-04-18T02:11:20.355Z,72.53
2023-04-18T02:14:22.707Z,72.44
2023-04-18T02:17:26.569Z,72.30
2023-04-18T02:20:33.713Z,72.50
2023-04-18T02:23:37.140Z,72.42
2023-04-18T02:26:39.471Z,72.48
2023-04-18T02:29:42.083Z,72.53
2023-04-18T02:32:44.447Z,72.80
2023-04-18T02:35:47.191Z,72.43
2023-04-18T02:38:51.472Z,72.43
2023-04-18T02:41:55.789Z,72.46
2023-04-18T02:44:58.494Z,72.34
2023-04-18T02:48:01.832Z,72.32
2023-04-18T02:51:05.999Z,72.17
2023-04-18T02:54:09.302Z,72.19
2023-04-18T02:57:12.889Z,72.37
2023-04-18T03:00:16.333Z,72.58
2023-04-18T03:03:22.724Z,72.81
2023-04-18T03:06:25.729Z,73.23
2023-04-18T03:09:28.448Z,73.25
2023-04-18T03:12:31.668Z,73.45
2023-04-18T03:15:35.006Z,73.41
2023-04-18T03:18:38.137Z,73.42
2023-04-18T03:21:40.683Z,73.22
2023-04-18T03:24:43.896Z,73.11
2023-04-18T03:27:46.869Z,73.15
2023-04-18T03:30:50.818Z,73.26
2023-04-18T03:33:53.397Z,73.33
2023-04-18T03:36:58.150Z,73.16
2023-04-18T03:40:01.119Z,73.26
2023-04-18T03:43:07.060Z,73.39
2023-04-18T03:46:09.402Z,73.82
2023-04-18T03:49:15.442Z,73.82
2023-04-18T03:52:20.148Z,74.21
2023-04-18T03:55:22.886Z,74.08
2023-04-18T03:58:25.737Z,73.88
2023-04-18T04:01:29.376Z,73.77
2023-04-18T04:04:32.150Z,73.93
2023-04-18T04:07:34.938Z,74.05
2023-04-18T04:10:37.569Z,74.13
2023-04-18T04:13:40.081Z,74.18
2023-04-18T04:16:43.043Z,74.50
2023-04-18T04:19:46.674Z,74.88
2023-04-18T04:22:52.593Z,75.25
2023-04-18T04:25:58.563Z,75.31
2023-04-18T04:29:05.181Z,75.60
2023-04-18T04:32:08.283Z,75.63
2023-04-18T04:35:11.705Z,75.73
2023-04-18T04:38:15.381Z,75.92
2023-04-18T04:41:18.802Z,75.90
2023-04-18T04:44:22.373Z,75.98
2023-04-18T04:47:26.073Z,76.28
2023-04-18T04:50:29.270Z,76.78
2023-04-18T04:53:31.883Z,77.00
2023-04-18T04:56:34.703Z,77.45
2023-04-18T04:59:37.931Z,77.70
2023-04-18T05:02:41.219Z,77.69
2023-04-18T05:05:43.989Z,78.49
2023-04-18T05:08:50.548Z,77.58
2023-04-18T05:11:53.165Z,77.80
2023-04-18T05:14:55.619Z,77.95
2023-04-18T05:17:58.819Z,76.85
2023-04-18T05:21:01.462Z,77.62
2023-04-18T05:24:04.079Z,76.81
2023-04-18T05:27:06.711Z,76.88
2023-04-18T05:30:09.781Z,76.92
2023-04-18T05:33:12.133Z,77.61
2023-04-18T05:36:14.764Z,76.96
2023-04-18T05:39:17.278Z,77.01
2023-04-18T05:42:19.906Z,76.55
2023-04-18T05:45:22.247Z,76.26
2023-04-18T05:48:25.381Z,76.12
2023-04-18T05:51:28.619Z,75.75
2023-04-18T05:54:31.412Z,76.00
2023-04-18T05:57:33.733Z,75.77
2023-04-18T06:00:36.491Z,75.18
2023-04-18T06:03:39.328Z,74.73
2023-04-18T06:06:42.147Z,74.51
2023-04-18T06:09:44.831Z,74.05
2023-04-18T06:12:47.152Z,74.01
2023-04-18T06:15:50.082Z,73.69
2023-04-18T06:18:52.622Z,73.02
2023-04-18T06:21:55.232Z,72.87
2023-04-18T06:24:57.760Z,72.57
2023-04-18T06:28:00.527Z,72.11
2023-04-18T06:31:02.936Z,71.74
2023-04-18T06:34:06.361Z,71.30
2023-04-18T06:37:08.740Z,70.83
2023-04-18T06:40:12.203Z,70.65
2023-04-18T06:43:14.735Z,70.62
2023-04-18T06:46:17.424Z,70.05
2023-04-18T06:49:22.002Z,69.86
2023-04-18T06:52:28.883Z,69.00
2023-04-18T06:55:31.325Z,68.54
2023-04-18T06:58:33.996Z,67.70
2023-04-18T07:01:43.148Z,67.32
2023-04-18T07:04:46.064Z,67.18
2023-04-18T07:07:48.608Z,67.10
2023-04-18T07:10:54.244Z,66.73
2023-04-18T07:13:56.577Z,66.40
2023-04-18T07:17:00.916Z,66.14
2023-04-18T07:20:03.451Z,65.83
2023-04-18T07:23:06.534Z,64.69
2023-04-18T07:26:10.137Z,64.32
2023-04-18T07:29:12.606Z,64.20
2023-04-18T07:32:14.876Z,64.04
2023-04-18T07:35:17.548Z,63.70
2023-04-18T07:38:20.768Z,63.54
2023-04-18T07:41:23.558Z,63.85
2023-04-18T07:44:25.994Z,62.60
2023-04-18T07:47:31.566Z,62.56
2023-04-18T07:50:34.643Z,62.43
2023-04-18T07:53:37.406Z,61.86
2023-04-18T07:56:42.401Z,61.76
2023-04-18T07:59:45.067Z,61.37
2023-04-18T08:02:47.631Z,61.19
2023-04-18T08:05:52.614Z,60.31
2023-04-18T08:08:55.004Z,59.89
2023-04-18T08:11:59.344Z,60.22
2023-04-18T08:15:01.720Z,60.13
2023-04-18T08:18:10.184Z,60.88
2023-04-18T08:21:14.557Z,59.09
2023-04-18T08:24:17.186Z,58.60
2023-04-18T08:27:20.687Z,57.43
2023-04-18T08:30:26.063Z,56.25
2023-04-18T08:33:37.186Z,56.12
2023-04-18T08:36:42.053Z,55.87
2023-04-18T08:39:45.034Z,55.52
2023-04-18T08:42:51.030Z,54.27
2023-04-18T08:45:59.500Z,54.32
2023-04-18T08:49:04.776Z,52.98
2023-04-18T08:52:13.503Z,51.91
2023-04-18T08:55:16.520Z,50.50
2023-04-18T08:58:22.758Z,49.32
2023-04-18T09:01:58.499Z,47.74
2023-04-18T09:05:11.064Z,44.53
2023-04-18T09:08:25.898Z,43.93
2023-04-18T09:11:30.292Z,44.18
2023-04-18T09:14:33.736Z,43.23
2023-04-18T09:17:46.111Z,44.40
2023-04-18T09:20:50.052Z,44.20
2023-04-18T09:24:03.421Z,44.94
2023-04-18T09:27:14.343Z,42.88
2023-04-18T09:30:40.041Z,42.51
2023-04-18T09:33:54.554Z,42.72
2023-04-18T09:37:11.279Z,42.58
2023-04-18T09:40:19.074Z,42.57
2023-04-18T09:43:21.916Z,42.36
2023-04-18T09:46:25.342Z,43.61
2023-04-18T09:49:27.784Z,44.49
2023-04-18T09:52:41.628Z,42.59
2023-04-18T09:55:44.740Z,41.99
2023-04-18T09:58:57.076Z,42.33
2023-04-18T10:01:59.891Z,41.35
2023-04-18T10:05:05.840Z,42.28
2023-04-18T10:08:09.460Z,43.06
2023-04-18T10:11:12.328Z,43.03
2023-04-18T10:14:17.830Z,42.40
2023-04-18T10:17:21.592Z,43.63
2023-04-18T10:20:32.694Z,42.95
2023-04-18T10:23:39.283Z,41.89
2023-04-18T10:26:47.137Z,42.31
2023-04-18T10:29:54.120Z,42.04
2023-04-18T10:32:56.815Z,41.16
2023-04-18T10:36:08.347Z,41.28
2023-04-18T10:39:22.800Z,41.15
2023-04-18T10:42:47.399Z,40.94
2023-04-18T10:46:23.947Z,42.09
2023-04-18T10:49:33.750Z,41.55
2023-04-18T10:52:36.099Z,43.16
2023-04-18T10:55:44.722Z,41.29
2023-04-18T10:58:52.269Z,41.17
2023-04-18T11:02:16.443Z,40.92
2023-04-18T11:05:21.064Z,44.16
2023-04-18T11:08:24.476Z,41.58
2023-04-18T11:11:26.909Z,41.23
2023-04-18T11:14:48.780Z,40.97
2023-04-18T11:18:04.843Z,41.03
2023-04-18T11:21:07.969Z,40.94
2023-04-18T11:24:10.835Z,41.33
2023-04-18T11:27:13.999Z,41.62
2023-04-18T11:30:16.480Z,41.25
2023-04-18T11:33:29.419Z,42.73
2023-04-18T11:36:35.180Z,41.51
2023-04-18T11:39:44.599Z,44.06
2023-04-18T11:42:46.971Z,40.92
2023-04-18T11:45:57.515Z,41.50
2023-04-18T11:48:59.850Z,43.31
2023-04-18T11:52:13.615Z,41.92
2023-04-18T11:55:21.722Z,41.41
2023-04-18T11:58:31.952Z,41.82
2023-04-18T12:01:34.496Z,42.62
2023-04-18T12:04:52.158Z,42.50
2023-04-18T12:07:56.096Z,42.72
2023-04-18T12:11:02.386Z,43.94
2023-04-18T12:14:04.824Z,43.34
2023-04-18T12:17:07.505Z,43.16
2023-04-18T12:20:10.773Z,42.34
2023-04-18T12:23:36.076Z,42.45
2023-04-18T12:26:45.979Z,41.99
2023-04-18T12:29:48.609Z,41.64
2023-04-18T12:32:53.610Z,41.64
2023-04-18T12:35:56.676Z,42.03
2023-04-18T12:38:59.003Z,41.26
2023-04-18T12:42:02.302Z,41.14
2023-04-18T12:45:07.781Z,41.93
2023-04-18T12:48:10.674Z,42.02
2023-04-18T12:51:13.002Z,40.78
2023-04-18T12:54:16.142Z,39.05
2023-04-18T12:57:18.645Z,38.52
2023-04-18T13:00:23.478Z,41.73
2023-04-18T13:03:26.434Z,40.17
2023-04-18T13:06:32.205Z,37.83
2023-04-18T13:09:34.605Z,39.37
2023-04-18T13:12:43.792Z,38.57
2023-04-18T13:15:46.128Z,37.03
2023-04-18T13:18:48.702Z,36.29
2023-04-18T13:21:54.377Z,35.86
2023-04-18T13:25:03.185Z,35.19
2023-04-18T13:28:05.645Z,33.94
2023-04-18T13:31:08.236Z,33.15
2023-04-18T13:34:10.654Z,32.65
2023-04-18T13:37:14.289Z,34.13
2023-04-18T13:40:16.665Z,32.43
2023-04-18T13:43:19.629Z,33.89
2023-04-18T13:46:24.329Z,32.79
2023-04-18T13:49:27.163Z,35.04
2023-04-18T13:52:29.578Z,32.99
2023-04-18T13:55:32.219Z,32.49
2023-04-18T13:58:34.484Z,32.37
2023-04-18T14:01:37.212Z,33.34
2023-04-18T14:04:39.957Z,31.30
2023-04-18T14:07:42.661Z,31.35
2023-04-18T14:10:46.747Z,31.65
2023-04-18T14:13:49.135Z,30.70
2023-04-18T14:16:55.911Z,30.45
2023-04-18T14:19:58.336Z,33.46
2023-04-18T14:23:01.928Z,31.25
2023-04-18T14:26:05.537Z,31.94
2023-04-18T14:29:08.220Z,31.27
2023-04-18T14:32:10.614Z,33.73
2023-04-18T14:35:13.249Z,31.13
2023-04-18T14:38:16.151Z,30.82
2023-04-18T14:41:18.813Z,31.48
2023-04-18T14:44:22.556Z,32.36
2023-04-18T14:47:30.919Z,31.63
2023-04-18T14:50:33.357Z,33.77
2023-04-18T14:53:36.048Z,35.47
2023-04-18T14:56:38.418Z,33.76
2023-04-18T14:59:41.039Z,31.39
2023-04-18T15:02:43.647Z,32.50
2023-04-18T15:05:48.486Z,36.20
2023-04-18T15:08:54.386Z,31.53
2023-04-18T15:11:58.195Z,32.11
2023-04-18T15:15:00.638Z,31.23
2023-04-18T15:18:03.949Z,33.05
2023-04-18T15:21:06.359Z,32.30
2023-04-18T15:24:09.056Z,31.61
2023-04-18T15:27:11.869Z,32.06
2023-04-18T15:30:14.645Z,32.83
2023-04-18T15:33:19.089Z,31.91
2023-04-18T15:36:22.112Z,31.74
2023-04-18T15:39:24.435Z,32.29
2023-04-18T15:42:28.089Z,32.28
2023-04-18T15:45:30.938Z,35.69
2023-04-18T15:48:34.821Z,33.74
2023-04-18T15:51:37.251Z,34.61
2023-04-18T15:54:42.997Z,34.34
2023-04-18T15:57:45.393Z,34.64
2023-04-18T16:00:50.061Z,33.97
2023-04-18T16:03:52.833Z,34.17
2023-04-18T16:06:55.873Z,34.18
2023-04-18T16:09:58.497Z,34.46
2023-04-18T16:13:00.968Z,34.66
2023-04-18T16:16:07.021Z,34.98
2023-04-18T16:19:09.769Z,34.58
2023-04-18T16:22:15.405Z,37.92
2023-04-18T16:25:18.991Z,35.25
2023-04-18T16:28:22.109Z,35.49
2023-04-18T16:31:24.423Z,37.11
2023-04-18T16:34:27.075Z,35.49
2023-04-18T16:37:29.446Z,39.15
2023-04-18T16:40:32.613Z,36.05
2023-04-18T16:43:38.117Z,36.08
2023-04-18T16:46:40.973Z,39.89
2023-04-18T16:49:44.830Z,39.71
2023-04-18T16:52:47.520Z,39.33
2023-04-18T16:55:56.178Z,40.05
2023-04-18T16:59:02.803Z,39.29
2023-04-18T17:02:05.752Z,36.85
2023-04-18T17:05:10.934Z,37.49
2023-04-18T17:08:13.360Z,39.39
2023-04-18T17:11:16.076Z,41.75
2023-04-18T17:14:18.543Z,37.58
2023-04-18T17:17:23.161Z,39.01
2023-04-18T17:20:26.041Z,39.83
2023-04-18T17:23:30.329Z,39.77
2023-04-18T17:26:35.295Z,41.19
2023-04-18T17:29:38.355Z,39.56
2023-04-18T17:32:45.741Z,38.56
2023-04-18T17:35:48.899Z,39.10
2023-04-18T17:38:51.350Z,41.70
2023-04-18T17:41:54.873Z,43.35
2023-04-18T17:44:57.355Z,42.42
2023-04-18T17:48:02.254Z,43.10
2023-04-18T17:51:05.084Z,43.68
2023-04-18T17:54:08.187Z,44.10
2023-04-18T17:57:11.237Z,44.85
2023-04-18T18:00:14.689Z,44.20
2023-04-18T18:03:17.640Z,44.09
2023-04-18T18:06:42.546Z,44.39
2023-04-18T18:09:45.848Z,45.55
2023-04-18T18:12:48.466Z,45.06
2023-04-18T18:15:52.767Z,45.85
2023-04-18T18:19:02.243Z,46.05
2023-04-18T18:22:04.601Z,46.33
2023-04-18T18:25:07.629Z,45.39
2023-04-18T18:28:10.134Z,46.47
2023-04-18T18:31:12.906Z,46.20
2023-04-18T18:34:15.678Z,46.81
2023-04-18T18:37:18.448Z,46.90
2023-04-18T18:40:21.309Z,45.91
2023-04-18T18:43:26.289Z,44.61
2023-04-18T18:46:28.789Z,44.96
2023-04-18T18:49:31.654Z,45.18
2023-04-18T18:52:35.781Z,46.79
2023-04-18T18:55:38.427Z,46.08
2023-04-18T18:58:41.142Z,47.24
2023-04-18T19:01:44.011Z,46.20
2023-04-18T19:04:47.076Z,47.12
2023-04-18T19:07:51.453Z,46.52
2023-04-18T19:10:56.002Z,45.77
2023-04-18T19:13:58.584Z,46.54
2023-04-18T19:17:01.046Z,46.82
2023-04-18T19:20:04.104Z,46.47
2023-04-18T19:23:06.551Z,45.41
2023-04-18T19:26:10.039Z,44.15
2023-04-18T19:29:14.313Z,43.89
2023-04-18T19:32:17.275Z,44.19
2023-04-18T19:35:19.608Z,45.93
2023-04-18T19:38:22.264Z,44.34
2023-04-18T19:41:26.018Z,46.21
2023-04-18T19:44:28.692Z,43.82
2023-04-18T19:47:33.812Z,45.44
2023-04-18T19:50:39.460Z,44.14
2023-04-18T19:53:41.840Z,43.28
2023-04-18T19:56:44.507Z,43.73
2023-04-18T19:59:46.919Z,44.77
2023-04-18T20:02:49.683Z,43.49
2023-04-18T20:05:52.508Z,44.52
2023-04-18T20:08:57.912Z,43.79
2023-04-18T20:12:02.068Z,43.68
2023-04-18T20:15:05.739Z,42.96
2023-04-18T20:18:08.269Z,44.25
2023-04-18T20:21:15.153Z,44.91
2023-04-18T20:24:17.904Z,44.56
2023-04-18T20:27:23.615Z,43.26
2023-04-18T20:30:27.691Z,42.92
2023-04-18T20:33:30.099Z,42.60
2023-04-18T20:36:34.504Z,43.38
2023-04-18T20:39:38.416Z,44.73
2023-04-18T20:42:41.117Z,42.90
2023-04-18T20:45:43.448Z,45.70
2023-04-18T20:48:46.171Z,45.26
2023-04-18T20:51:53.417Z,46.77
2023-04-18T20:55:01.408Z,47.07
2023-04-18T20:58:03.804Z,46.34
2023-04-18T21:01:07.120Z,46.34
2023-04-18T21:04:09.649Z,43.91
2023-04-18T21:07:12.459Z,45.50
2023-04-18T21:10:17.228Z,43.61
2023-04-18T21:13:19.830Z,42.79
2023-04-18T21:16:24.028Z,43.03
2023-04-18T21:19:26.900Z,43.46
2023-04-18T21:22:29.263Z,42.94
2023-04-18T21:25:31.893Z,42.99
2023-04-18T21:28:34.253Z,43.05
2023-04-18T21:31:37.141Z,42.78
2023-04-18T21:34:39.489Z,42.99
2023-04-18T21:37:42.547Z,43.14
2023-04-18T21:40:44.832Z,44.56
2023-04-18T21:43:47.640Z,43.59
2023-04-18T21:46:50.049Z,43.76
2023-04-18T21:49:52.844Z,44.05
2023-04-18T21:52:55.280Z,43.99
2023-04-18T21:55:57.855Z,43.97
2023-04-18T21:59:00.549Z,44.52
2023-04-18T22:02:03.233Z,46.41
2023-04-18T22:05:08.837Z,44.54
2023-04-18T22:08:11.154Z,44.62
2023-04-18T22:11:13.833Z,44.90
2023-04-18T22:14:16.592Z,44.32
2023-04-18T22:17:19.534Z,46.18
2023-04-18T22:20:22.402Z,44.73
2023-04-18T22:23:26.296Z,45.79
2023-04-18T22:26:28.991Z,44.86
2023-04-18T22:29:31.670Z,45.05
2023-04-18T22:32:34.045Z,45.26
2023-04-18T22:35:36.718Z,45.72
2023-04-18T22:38:39.386Z,46.56
2023-04-18T22:41:42.082Z,46.41
2023-04-18T22:44:44.408Z,46.71
2023-04-18T22:47:47.467Z,47.33
2023-04-18T22:50:50.122Z,47.43
2023-04-18T22:53:52.715Z,47.28
2023-04-18T22:56:55.132Z,47.44
2023-04-18T22:59:57.780Z,45.60
2023-04-18T23:03:00.510Z,46.21
2023-04-18T23:06:03.207Z,46.78
2023-04-18T23:09:07.763Z,46.56
2023-04-18T23:12:10.437Z,46.41
2023-04-18T23:15:13.144Z,47.20
2023-04-18T23:18:15.805Z,47.27
2023-04-18T23:21:18.150Z,47.31
2023-04-18T23:24:20.708Z,47.21
2023-04-18T23:27:23.064Z,46.82
2023-04-18T23:30:26.772Z,46.50
2023-04-18T23:33:29.070Z,46.94
2023-04-18T23:36:32.418Z,47.05
2023-04-18T23:39:34.711Z,47.14
2023-04-18T23:42:37.402Z,47.32
2023-04-18T23:45:39.813Z,45.44
2023-04-18T23:48:42.506Z,45.96
2023-04-18T23:51:44.896Z,46.86
2023-04-18T23:54:47.471Z,46.03
2023-04-18T23:57:49.845Z,45.58
